Time;durP1;ratioP1;P1;durP2;ratioP2;P2;SDS_P1;SDS_P2;PMS_P1;PMS_P2;Temp;Humidity;BMP_temperature;BMP_pressure;BME280_temperature;BME280_humidity;BME280_pressure;Samples;Min_cycle;Max_cycle;Signal;HPM_P1;HPM_P2
2023/09/11 00:00:41;;;;;;;5.43;3.50;;;;;;;28.47;51.42;101594.19;21063573;28;20098;-54
2023/09/11 00:10:43;;;;;;;6.35;2.97;;;;;;;28.51;51.33;101603.66;21055503;28;20040;-55
2023/09/11 00:20:44;;;;;;;4.32;2.88;;;;;;;28.53;51.19;101626.69;21065750;28;20040;-54
2023/09/11 00:30:46;;;;;;;6.65;3.13;;;;;;;28.54;51.43;101611.47;21066178;28;20101;-53
2023/09/11 00:40:47;;;;;;;13.35;3.75;;;;;;;28.80;51.72;101620.97;21061315;28;20036;-55
2023/09/11 00:50:50;;;;;;;29.08;7.43;;;;;;;28.86;55.10;101624.50;21068292;28;20534;-56
2023/09/11 01:00:52;;;;;;;22.77;7.28;;;;;;;28.94;55.60;101646.28;21071176;28;20169;-52
2023/09/11 01:10:57;;;;;;;24.38;5.30;;;;;;;28.95;55.49;101644.28;21080553;28;20187;-55
2023/09/11 01:21:04;;;;;;;17.33;5.88;;;;;;;28.95;55.27;101661.19;21063491;28;20048;-55
2023/09/11 01:31:07;;;;;;;11.30;4.75;;;;;;;28.92;55.09;101651.41;21080835;28;20121;-53
2023/09/11 01:41:10;;;;;;;12.77;5.15;;;;;;;28.97;54.63;101654.13;21082697;28;20031;-56
2023/09/11 01:51:13;;;;;;;10.82;5.05;;;;;;;28.46;56.35;101631.94;21078766;28;20564;-61
2023/09/11 02:01:14;;;;;;;12.93;5.15;;;;;;;28.40;56.97;101621.94;21076959;28;20047;-62
2023/09/11 02:11:16;;;;;;;11.68;4.57;;;;;;;28.49;56.31;101617.22;21067057;28;20062;-59
2023/09/11 02:21:17;;;;;;;9.18;4.43;;;;;;;28.55;55.77;101624.41;21059756;28;20387;-62
2023/09/11 02:31:18;;;;;;;11.75;5.15;;;;;;;28.58;55.43;101630.22;21056261;28;20040;-60
2023/09/11 02:41:20;;;;;;;10.65;4.22;;;;;;;28.57;55.17;101634.19;21081730;28;20028;-61
2023/09/11 02:51:21;;;;;;;9.32;5.25;;;;;;;28.57;54.80;101633.38;21035399;28;20045;-61
2023/09/11 03:01:22;;;;;;;13.20;5.20;;;;;;;28.57;54.59;101588.31;21053692;28;20074;-61
2023/09/11 03:11:24;;;;;;;9.68;4.80;;;;;;;28.55;54.13;101591.47;21076205;28;20044;-60
2023/09/11 03:21:25;;;;;;;11.90;5.25;;;;;;;28.61;53.91;101592.16;21068844;28;20540;-61
2023/09/11 03:31:27;;;;;;;8.55;4.43;;;;;;;28.59;53.65;101602.91;21073759;28;20036;-61
2023/09/11 03:41:28;;;;;;;13.18;5.22;;;;;;;28.57;53.38;101600.41;21077661;28;20165;-62
2023/09/11 03:51:29;;;;;;;12.00;5.50;;;;;;;28.58;53.28;101585.16;21074665;28;20495;-62
2023/09/11 04:01:31;;;;;;;9.25;4.80;;;;;;;28.51;53.14;101547.38;21065798;28;20587;-62
2023/09/11 04:11:32;;;;;;;8.68;4.93;;;;;;;28.62;52.87;101585.38;21063929;28;20399;-62
2023/09/11 04:21:33;;;;;;;9.02;4.75;;;;;;;28.57;53.09;101593.94;21065788;28;20767;-60
2023/09/11 04:31:35;;;;;;;10.65;5.47;;;;;;;28.60;53.17;101593.31;21068295;28;20380;-61
2023/09/11 04:41:36;;;;;;;12.77;5.07;;;;;;;28.59;52.89;101546.56;21052357;28;20576;-61
2023/09/11 04:51:37;;;;;;;9.85;4.90;;;;;;;28.61;52.93;101558.38;21082273;28;20036;-60
2023/09/11 05:01:39;;;;;;;11.45;5.50;;;;;;;28.63;52.98;101572.94;21086498;28;20036;-61
2023/09/11 05:11:40;;;;;;;8.70;4.93;;;;;;;28.59;53.01;101547.44;21091827;28;20465;-61
2023/09/11 05:21:42;;;;;;;7.55;4.60;;;;;;;28.63;53.01;101544.78;21090406;28;20032;-62
2023/09/11 05:31:46;;;;;;;9.13;4.75;;;;;;;28.60;53.01;101546.28;21084854;28;20117;-61
2023/09/11 05:41:48;;;;;;;9.52;4.72;;;;;;;28.63;52.99;101544.78;21089862;28;20044;-62
2023/09/11 05:51:49;;;;;;;8.18;4.65;;;;;;;28.57;52.97;101526.38;21082436;28;20047;-61
2023/09/11 06:01:50;;;;;;;9.45;4.35;;;;;;;28.53;53.20;101500.81;21081863;28;20395;-61
2023/09/11 06:11:52;;;;;;;7.03;4.00;;;;;;;28.59;53.05;101507.16;21076832;28;20048;-61
2023/09/11 06:21:54;;;;;;;8.10;4.18;;;;;;;28.61;52.92;101483.16;21085899;28;20066;-61
2023/09/11 06:31:55;;;;;;;6.47;4.20;;;;;;;28.61;52.99;101499.25;21080654;28;20036;-62
2023/09/11 06:41:59;;;;;;;7.65;4.50;;;;;;;28.61;52.97;101510.50;21072570;28;20089;-62
2023/09/11 06:52:00;;;;;;;7.07;3.63;;;;;;;28.59;52.98;101507.16;21075019;28;20036;-61
2023/09/11 07:02:02;;;;;;;5.72;3.75;;;;;;;28.59;52.96;101495.91;21076244;28;20040;-59
2023/09/11 07:12:04;;;;;;;5.45;3.33;;;;;;;28.60;52.87;101503.22;21077303;28;20098;-60
2023/09/11 07:22:05;;;;;;;6.28;3.47;;;;;;;28.61;52.91;101505.69;21075216;28;20044;-60
2023/09/11 07:32:08;;;;;;;5.20;3.30;;;;;;;28.61;52.89;101488.81;21074779;28;20024;-61
2023/09/11 07:42:09;;;;;;;4.35;2.85;;;;;;;28.57;52.98;101489.75;21068154;28;20036;-62
2023/09/11 07:52:10;;;;;;;5.15;3.35;;;;;;;28.56;53.00;101485.28;21070569;28;20556;-61
2023/09/11 08:02:12;;;;;;;5.28;3.28;;;;;;;28.61;52.79;101455.00;21067796;28;20032;-61
2023/09/11 08:12:13;;;;;;;4.07;3.03;;;;;;;28.61;52.65;101462.63;21069385;28;20185;-61
2023/09/11 08:22:14;;;;;;;6.20;2.95;;;;;;;28.60;53.08;101455.34;21069108;28;20475;-61
2023/09/11 08:32:16;;;;;;;5.45;3.40;;;;;;;28.58;52.78;101446.38;21063603;28;20044;-60
2023/09/11 08:42:17;;;;;;;4.35;2.80;;;;;;;28.51;53.04;101427.13;21073295;28;20047;-61
2023/09/11 08:52:22;;;;;;;4.00;2.47;;;;;;;28.59;52.98;101439.59;21073370;28;20058;-61
2023/09/11 09:02:25;;;;;;;3.40;2.70;;;;;;;28.57;52.90;101425.00;21070199;28;20048;-61
2023/09/11 09:12:27;;;;;;;4.40;2.75;;;;;;;28.42;52.78;101402.91;21068184;28;20044;-62
2023/09/11 09:22:28;;;;;;;4.13;2.30;;;;;;;28.53;52.99;101410.75;21051268;28;20040;-61
2023/09/11 09:32:33;;;;;;;4.53;2.55;;;;;;;28.51;52.69;101398.16;21075376;28;20043;-61
2023/09/11 09:42:40;;;;;;;2.92;2.13;;;;;;;28.49;52.89;101394.81;21071296;28;20051;-61
2023/09/11 09:52:43;;;;;;;3.35;2.45;;;;;;;28.55;52.79;101425.34;21069157;28;20040;-61
2023/09/11 10:02:45;;;;;;;3.20;2.00;;;;;;;28.49;52.93;101404.09;21082954;28;20124;-61
2023/09/11 10:13:07;;;;;;;2.65;2.25;;;;;;;28.43;52.90;101387.66;21078370;28;20055;-61
2023/09/11 10:23:11;;;;;;;3.50;2.35;;;;;;;28.49;52.87;101417.34;21076155;28;20044;-61
2023/09/11 10:33:22;;;;;;;2.72;1.90;;;;;;;28.51;52.91;101426.31;21074142;28;20036;-61
2023/09/11 10:43:26;;;;;;;2.10;1.90;;;;;;;28.56;52.93;101429.81;21072942;28;20561;-61
2023/09/11 10:53:29;;;;;;;3.50;1.92;;;;;;;28.41;52.85;101420.91;21071877;28;20032;-61
2023/09/11 11:03:35;;;;;;;1.83;1.50;;;;;;;28.52;52.83;101431.59;21071665;28;20378;-63
2023/09/11 11:13:38;;;;;;;3.42;2.05;;;;;;;28.53;52.68;101447.34;21065203;28;20070;-61
2023/09/11 11:24:04;;;;;;;3.10;1.77;;;;;;;28.46;53.02;101460.22;21067652;28;20495;-61
2023/09/11 11:34:06;;;;;;;4.95;1.52;;;;;;;28.18;53.16;101415.28;21069208;28;20399;-62
2023/09/11 11:44:10;;;;;;;3.72;2.03;;;;;;;28.43;52.97;101458.03;21078831;28;20035;-62
2023/09/11 11:54:22;;;;;;;3.40;1.40;;;;;;;28.40;52.93;101456.69;21079413;28;20052;-62
2023/09/11 12:04:26;;;;;;;2.17;1.63;;;;;;;28.50;52.84;101472.47;21078253;28;20090;-62
2023/09/11 12:14:28;;;;;;;4.13;1.80;;;;;;;28.51;52.63;101480.63;21075312;28;20073;-63
2023/09/11 12:24:30;;;;;;;4.55;1.70;;;;;;;28.49;52.80;101487.72;21077678;28;20101;-62
2023/09/11 12:34:50;;;;;;;3.20;1.50;;;;;;;28.39;52.72;101490.78;21075590;28;20133;-63
2023/09/11 12:44:51;;;;;;;3.83;1.90;;;;;;;28.47;52.62;101482.41;21076841;28;20032;-62
2023/09/11 12:54:52;;;;;;;2.72;1.25;;;;;;;28.47;52.55;101487.22;21076757;28;20090;-62
2023/09/11 13:04:54;;;;;;;1.95;1.50;;;;;;;28.49;52.49;101501.78;21081665;28;20463;-62
2023/09/11 13:14:55;;;;;;;1.58;1.30;;;;;;;28.49;52.43;101518.69;21092012;28;20044;-63
2023/09/11 13:24:57;;;;;;;1.92;1.73;;;;;;;28.47;52.45;101543.53;21088837;28;20036;-62
2023/09/11 13:34:58;;;;;;;1.65;1.40;;;;;;;28.44;52.42;101528.09;21067162;28;20041;-60
2023/09/11 13:45:02;;;;;;;2.40;1.50;;;;;;;28.46;52.38;101528.63;21047235;28;20471;-61
2023/09/11 13:55:04;;;;;;;3.67;1.80;;;;;;;28.44;52.42;101524.44;21081365;28;20197;-62
2023/09/11 14:05:06;;;;;;;6.32;2.70;;;;;;;28.46;52.66;101531.44;21071871;28;20052;-63
2023/09/11 14:15:11;;;;;;;9.50;2.20;;;;;;;28.28;52.76;101530.41;21058856;28;20104;-64
2023/09/11 14:25:12;;;;;;;5.50;2.70;;;;;;;28.43;53.13;101553.75;21080768;28;20465;-62
2023/09/11 14:35:14;;;;;;;7.82;3.35;;;;;;;28.30;53.64;101505.59;21061050;28;20044;-65
2023/09/11 14:45:15;;;;;;;6.45;2.72;;;;;;;28.45;53.44;101537.34;21059208;28;20177;-64
2023/09/11 14:55:17;;;;;;;8.48;2.58;;;;;;;28.45;53.62;101517.66;21075752;28;20035;-64
2023/09/11 15:05:19;;;;;;;4.53;2.60;;;;;;;28.45;53.67;101543.00;21056424;28;20563;-64
2023/09/11 15:15:20;;;;;;;5.93;2.75;;;;;;;28.42;53.50;101533.22;21081407;28;20052;-63
2023/09/11 15:25:21;;;;;;;4.30;2.67;;;;;;;28.44;53.88;101527.25;21069394;28;20097;-63
2023/09/11 15:35:23;;;;;;;7.95;2.60;;;;;;;28.47;53.49;101509.72;21043735;28;20457;-64
2023/09/11 15:45:24;;;;;;;6.43;2.70;;;;;;;28.48;53.72;101508.56;21043704;28;20028;-63
2023/09/11 15:55:27;;;;;;;5.43;2.67;;;;;;;28.49;53.60;101491.34;21074354;28;20078;-62
2023/09/11 16:05:29;;;;;;;3.83;2.85;;;;;;;28.52;53.69;101473.00;21040013;28;20468;-64
2023/09/11 16:15:32;;;;;;;4.15;2.75;;;;;;;28.56;53.76;101468.41;21021651;28;20402;-63
2023/09/11 16:25:37;;;;;;;3.72;2.65;;;;;;;28.58;53.79;101469.72;21070964;28;20056;-63
2023/09/11 16:35:43;;;;;;;4.00;2.80;;;;;;;28.53;53.78;101446.50;21053939;28;20047;-64
2023/09/11 16:45:49;;;;;;;3.10;2.60;;;;;;;28.62;53.83;101448.22;21042136;28;20082;-64
2023/09/11 16:55:50;;;;;;;3.80;2.60;;;;;;;28.60;51.39;101438.44;21063962;28;20121;-63
2023/09/11 17:05:52;;;;;;;4.18;2.65;;;;;;;28.45;50.16;101442.47;21072635;28;20040;-64
2023/09/11 17:15:56;;;;;;;3.63;3.00;;;;;;;28.28;49.53;101417.84;21069910;28;20040;-63
2023/09/11 17:25:57;;;;;;;3.40;2.72;;;;;;;28.25;49.23;101426.09;21071315;28;20048;-64
2023/09/11 17:35:59;;;;;;;3.58;2.95;;;;;;;28.06;48.87;101386.88;21052987;28;20048;-64
2023/09/11 17:46:00;;;;;;;3.40;3.10;;;;;;;28.10;48.67;101399.16;21056259;28;20040;-63
2023/09/11 17:56:07;;;;;;;5.78;3.15;;;;;;;28.03;48.42;101370.63;21075826;28;20048;-63
2023/09/11 18:06:09;;;;;;;3.80;3.05;;;;;;;27.90;48.48;101361.09;21083438;28;20395;-64
2023/09/11 18:16:10;;;;;;;3.20;2.90;;;;;;;27.93;48.51;101373.69;21083850;28;20078;-62
2023/09/11 18:26:12;;;;;;;3.75;3.05;;;;;;;27.89;48.28;101369.84;21074791;28;20059;-63
2023/09/11 18:36:16;;;;;;;3.50;3.20;;;;;;;27.88;49.63;101351.31;21085618;28;20398;-63
2023/09/11 18:46:17;;;;;;;3.75;3.45;;;;;;;28.00;53.21;101343.16;21070645;28;20035;-62
2023/09/11 18:56:22;;;;;;;3.75;3.35;;;;;;;28.04;54.14;101333.75;21071530;28;20044;-62
2023/09/11 19:06:26;;;;;;;3.95;3.60;;;;;;;28.05;54.32;101318.53;21081485;28;20040;-65
2023/09/11 19:16:28;;;;;;;4.40;3.95;;;;;;;28.15;53.80;101331.50;21026639;28;20545;-62
2023/09/11 19:26:29;;;;;;;4.15;3.45;;;;;;;28.20;53.78;101325.75;21061239;28;20070;-60
2023/09/11 19:36:30;;;;;;;4.65;3.35;;;;;;;28.23;54.24;101322.28;21074469;28;20039;-63
2023/09/11 19:46:34;;;;;;;4.55;3.30;;;;;;;28.25;54.31;101328.41;21074636;28;20117;-63
2023/09/11 19:56:36;;;;;;;7.28;3.92;;;;;;;28.28;54.19;101319.34;21060306;28;20040;-61
2023/09/11 20:06:37;;;;;;;21.15;4.50;;;;;;;28.36;54.43;101317.72;21065368;28;20036;-70
2023/09/11 20:16:41;;;;;;;15.38;4.50;;;;;;;28.33;54.75;101307.94;21017697;28;20041;-58
2023/09/11 20:26:48;;;;;;;8.37;3.87;;;;;;;28.24;54.61;101309.88;21066228;28;20080;-59
2023/09/11 20:36:50;;;;;;;11.15;4.15;;;;;;;28.26;54.59;101329.25;21061861;28;20025;-58
2023/09/11 20:46:51;;;;;;;9.80;3.15;;;;;;;28.30;54.22;101314.19;21044701;28;20036;-59
2023/09/11 20:56:53;;;;;;;5.65;3.42;;;;;;;28.27;54.30;101325.28;21076071;28;20456;-58
2023/09/11 21:06:55;;;;;;;5.20;3.63;;;;;;;28.10;54.34;101321.22;21075915;28;20039;-58
2023/09/11 21:16:56;;;;;;;6.65;4.43;;;;;;;28.29;54.14;101374.47;21040130;28;20588;-59
2023/09/11 21:26:58;;;;;;;4.03;3.50;;;;;;;28.31;54.15;101369.31;21069361;28;20040;-57
2023/09/11 21:37:02;;;;;;;7.07;3.55;;;;;;;28.18;54.48;101367.44;21062208;28;20055;-56
2023/09/11 21:47:04;;;;;;;10.60;3.83;;;;;;;28.04;54.94;101392.84;21035840;28;20169;-57
2023/09/11 21:57:06;;;;;;;6.95;3.60;;;;;;;28.03;54.86;101388.34;21079946;28;20089;-57
2023/09/11 22:07:07;;;;;;;7.55;3.97;;;;;;;28.20;54.57;101406.50;21073311;28;20043;-58
2023/09/11 22:17:09;;;;;;;3.95;3.42;;;;;;;28.12;54.86;101371.53;21081375;28;20479;-57
2023/09/11 22:27:10;;;;;;;3.60;3.15;;;;;;;28.16;54.75;101347.22;21065546;28;20487;-56
2023/09/11 22:37:12;;;;;;;4.60;3.85;;;;;;;28.34;54.83;101356.63;21061298;28;20767;-59
2023/09/11 22:47:13;;;;;;;6.78;4.15;;;;;;;28.34;55.25;101367.88;21058213;28;20048;-58
2023/09/11 22:57:15;;;;;;;5.65;3.72;;;;;;;28.36;55.51;101369.25;21053295;28;20108;-57
2023/09/11 23:07:16;;;;;;;7.80;4.03;;;;;;;28.41;55.43;101404.03;21074615;28;20089;-58
2023/09/11 23:17:17;;;;;;;5.32;3.55;;;;;;;28.38;55.76;101404.69;21075204;28;20048;-57
2023/09/11 23:27:19;;;;;;;5.72;4.20;;;;;;;28.43;55.54;101407.38;21069416;28;20586;-57
2023/09/11 23:37:20;;;;;;;4.00;3.35;;;;;;;28.39;55.70;101415.63;21064673;28;20422;-59
2023/09/11 23:47:21;;;;;;;5.95;4.35;;;;;;;28.36;55.43;101419.91;21042097;28;20044;-58
2023/09/11 23:57:23;;;;;;;7.22;6.25;;;;;;;28.38;55.51;101449.72;21078865;28;20079;-59
